createdAt,value
2019-01-23T00:03:14.809Z,38.00
2019-01-23T00:06:59.462Z,35.90
2019-01-23T00:10:44.088Z,39.10
2019-01-23T00:14:28.722Z,38.93
2019-01-23T00:18:13.629Z,40.07
2019-01-23T00:21:58.560Z,42.37
2019-01-23T00:25:43.222Z,41.07
2019-01-23T00:29:27.840Z,35.27
2019-01-23T00:33:05.034Z,37.07
2019-01-23T00:36:49.670Z,39.07
2019-01-23T00:40:34.339Z,38.90
2019-01-23T00:44:18.964Z,34.83
2019-01-23T00:48:03.566Z,36.83
2019-01-23T00:51:48.316Z,38.43
2019-01-23T00:55:32.970Z,35.63
2019-01-23T00:59:17.858Z,37.63
2019-01-23T01:03:02.479Z,34.57
2019-01-23T01:06:47.127Z,38.30
2019-01-23T01:10:24.674Z,35.80
2019-01-23T01:14:09.372Z,36.70
2019-01-23T01:17:53.997Z,35.83
2019-01-23T01:21:38.617Z,38.67
2019-01-23T01:25:23.249Z,39.47
2019-01-23T01:29:07.892Z,36.00
2019-01-23T01:32:44.982Z,34.03
2019-01-23T01:36:29.603Z,38.90
2019-01-23T01:40:15.215Z,37.63
2019-01-23T01:43:59.869Z,39.77
2019-01-23T01:48:03.374Z,38.60
2019-01-23T01:51:48.020Z,36.20
2019-01-23T01:55:32.668Z,38.23
2019-01-23T01:59:17.316Z,36.50
2019-01-23T02:03:01.959Z,38.40
2019-01-23T02:06:46.968Z,33.97
2019-01-23T02:10:24.570Z,37.23
2019-01-23T02:17:59.593Z,38.20
2019-01-23T02:21:44.243Z,34.87
2019-01-23T02:25:28.827Z,35.23
2019-01-23T02:29:13.451Z,37.60
2019-01-23T02:32:50.872Z,35.10
2019-01-23T02:36:35.531Z,36.13
2019-01-23T02:40:22.038Z,36.23
2019-01-23T02:44:06.667Z,34.27
2019-01-23T02:47:51.965Z,34.93
2019-01-23T02:51:36.961Z,34.23
2019-01-23T02:55:22.198Z,36.73
2019-01-23T02:59:06.858Z,33.13
2019-01-23T03:03:10.744Z,35.60
2019-01-23T03:06:55.351Z,31.33
2019-01-23T03:10:32.534Z,35.70
2019-01-23T03:18:07.016Z,31.97
2019-01-23T03:21:51.953Z,34.73
2019-01-23T03:25:36.570Z,35.67
2019-01-23T03:29:40.036Z,31.83
2019-01-23T03:33:24.966Z,33.13
2019-01-23T03:37:10.024Z,35.10
2019-01-23T03:40:55.031Z,35.47
2019-01-23T03:44:39.692Z,32.93
2019-01-23T03:48:24.373Z,33.50
2019-01-23T03:52:08.987Z,30.37
2019-01-23T03:56:13.343Z,32.33
2019-01-23T03:59:57.960Z,31.67
2019-01-23T04:03:42.590Z,30.60
2019-01-23T04:07:27.312Z,30.43
2019-01-23T04:11:04.361Z,29.53
2019-01-23T04:14:48.929Z,30.20
2019-01-23T04:18:33.586Z,29.30
2019-01-23T04:26:08.086Z,30.90
2019-01-23T04:29:52.702Z,30.13
2019-01-23T04:33:30.541Z,30.37
2019-01-23T04:37:15.178Z,31.07
2019-01-23T04:40:59.797Z,30.63
2019-01-23T04:44:44.379Z,28.80
2019-01-23T04:48:29.007Z,29.30
2019-01-23T04:52:32.469Z,30.17
2019-01-23T04:56:17.086Z,26.80
2019-01-23T05:00:01.680Z,29.77
2019-01-23T05:03:46.285Z,28.60
2019-01-23T05:07:30.861Z,29.33
2019-01-23T05:11:08.569Z,29.47
2019-01-23T05:14:53.154Z,26.63
2019-01-23T05:18:37.760Z,32.07
2019-01-23T05:22:22.388Z,28.97
2019-01-23T05:26:06.987Z,29.37
2019-01-23T05:29:54.995Z,30.73
2019-01-23T05:33:30.464Z,30.63
2019-01-23T05:37:15.084Z,31.07
2019-01-23T05:40:59.957Z,31.57
2019-01-23T05:44:44.569Z,31.93
2019-01-23T05:48:29.205Z,29.40
2019-01-23T05:52:13.764Z,29.60
2019-01-23T05:59:48.252Z,30.77
2019-01-23T06:03:32.847Z,29.50
2019-01-23T06:07:17.462Z,29.27
2019-01-23T06:10:54.332Z,31.50
2019-01-23T06:14:39.215Z,29.93
2019-01-23T06:18:23.895Z,32.73
2019-01-23T06:22:08.481Z,30.87
2019-01-23T06:25:53.081Z,31.83
2019-01-23T06:29:37.747Z,32.73
2019-01-23T06:33:06.420Z,32.40
2019-01-23T06:36:51.048Z,32.07
2019-01-23T06:40:54.526Z,31.70
2019-01-23T06:48:10.557Z,29.47
2019-01-23T06:51:55.674Z,30.80
2019-01-23T06:55:40.316Z,31.73
2019-01-23T07:03:15.021Z,31.83
2019-01-23T07:06:52.893Z,29.67
2019-01-23T07:10:37.529Z,32.20
2019-01-23T07:14:22.491Z,34.53
2019-01-23T07:18:07.170Z,30.83
2019-01-23T07:21:51.866Z,34.73
2019-01-23T07:25:36.517Z,31.07
2019-01-23T07:29:21.148Z,31.03
2019-01-23T07:33:05.790Z,30.07
2019-01-23T07:36:50.645Z,33.67
2019-01-23T07:40:35.267Z,31.60
2019-01-23T07:44:19.871Z,34.40
2019-01-23T07:51:56.546Z,31.17
2019-01-23T07:55:41.162Z,31.00
2019-01-23T08:03:15.844Z,30.90
2019-01-23T08:07:00.507Z,31.70
2019-01-23T08:10:37.738Z,31.23
2019-01-23T08:14:22.718Z,34.53
2019-01-23T08:18:07.788Z,31.10
2019-01-23T08:21:52.364Z,34.30
2019-01-23T08:25:37.029Z,34.87
2019-01-23T08:29:21.658Z,31.87
2019-01-23T08:36:56.585Z,33.00
2019-01-23T08:40:41.488Z,30.97
2019-01-23T08:44:26.130Z,34.40
2019-01-23T08:48:11.122Z,30.63
2019-01-23T08:51:56.058Z,33.57
2019-01-23T08:55:40.646Z,30.30
2019-01-23T08:59:25.306Z,30.37
2019-01-23T09:06:54.428Z,32.97
2019-01-23T09:10:31.528Z,31.77
2019-01-23T09:14:16.180Z,31.87
2019-01-23T09:17:41.929Z,31.30
2019-01-23T09:21:26.732Z,31.43
2019-01-23T09:25:12.956Z,30.63
2019-01-23T09:28:58.216Z,29.57
2019-01-23T09:32:54.753Z,27.23
2019-01-23T09:37:11.467Z,30.03
2019-01-23T09:41:12.280Z,30.97
2019-01-23T09:45:35.051Z,29.83
2019-01-23T09:49:42.987Z,31.83
2019-01-23T09:53:49.198Z,26.53
2019-01-23T09:57:36.833Z,28.87
2019-01-23T10:01:21.509Z,28.67
2019-01-23T10:05:06.323Z,28.30
2019-01-23T10:08:50.970Z,29.50
2019-01-23T10:12:35.677Z,28.13
2019-01-23T10:16:21.165Z,29.47
2019-01-23T10:20:06.145Z,30.10
2019-01-23T10:23:50.781Z,28.07
2019-01-23T10:27:35.387Z,29.73
2019-01-23T10:31:20.382Z,27.70
2019-01-23T10:34:58.096Z,30.13
2019-01-23T10:42:33.653Z,26.67
2019-01-23T10:46:18.298Z,28.17
2019-01-23T10:50:02.885Z,27.13
2019-01-23T10:53:47.489Z,26.53
2019-01-23T10:57:32.143Z,28.10
2019-01-23T11:01:17.075Z,27.00
2019-01-23T11:05:20.532Z,27.77
2019-01-23T11:09:25.905Z,28.03
2019-01-23T11:20:51.523Z,28.40
2019-01-23T11:24:36.152Z,28.80
2019-01-23T11:28:20.780Z,33.63
2019-01-23T11:31:46.992Z,30.57
2019-01-23T11:35:24.441Z,29.40
2019-01-23T11:39:10.092Z,31.40
2019-01-23T11:42:35.598Z,31.10
2019-01-23T11:50:31.366Z,30.47
2019-01-23T11:58:06.834Z,32.33
2019-01-23T12:02:10.304Z,33.33
2019-01-23T12:05:55.041Z,31.67
2019-01-23T12:09:32.419Z,31.20
2019-01-23T12:13:17.381Z,29.43
2019-01-23T12:17:02.050Z,29.27
2019-01-23T12:20:46.697Z,28.67
2019-01-23T12:31:53.141Z,33.97
2019-01-23T12:35:18.965Z,31.57
2019-01-23T12:43:14.552Z,36.67
2019-01-23T12:46:59.172Z,33.67
2019-01-23T12:50:44.073Z,35.33
2019-01-23T12:54:28.685Z,34.73
2019-01-23T13:02:09.609Z,37.07
2019-01-23T13:05:50.013Z,39.93
2019-01-23T13:09:34.623Z,36.87
2019-01-23T13:13:19.364Z,38.10
2019-01-23T13:17:22.870Z,38.50
2019-01-23T13:21:07.471Z,35.97
2019-01-23T13:28:22.866Z,35.10
2019-01-23T13:32:07.457Z,36.73
2019-01-23T13:35:52.076Z,35.17
2019-01-23T13:39:36.770Z,35.67
2019-01-23T13:43:21.781Z,34.47
2019-01-23T13:47:06.436Z,34.77
2019-01-23T13:50:51.145Z,33.10
2019-01-23T13:54:36.596Z,32.87
2019-01-23T13:58:21.738Z,30.50
2019-01-23T14:02:06.361Z,27.00
2019-01-23T14:05:50.958Z,27.97
2019-01-23T14:09:27.767Z,27.17
2019-01-23T14:13:12.380Z,27.33
2019-01-23T14:16:57.015Z,27.53
2019-01-23T14:20:41.777Z,30.90
2019-01-23T14:24:26.771Z,31.40
2019-01-23T14:28:11.499Z,30.20
2019-01-23T14:32:03.063Z,30.43
2019-01-23T14:35:44.884Z,30.87
2019-01-23T14:39:29.531Z,29.90
2019-01-23T14:43:14.156Z,30.67
2019-01-23T14:46:58.895Z,31.27
2019-01-23T14:50:43.660Z,33.23
2019-01-23T14:54:28.327Z,30.17
2019-01-23T14:58:32.042Z,29.70
2019-01-23T15:01:57.747Z,45.90
2019-01-23T15:05:42.604Z,28.53
2019-01-23T15:09:20.701Z,26.07
2019-01-23T15:17:10.345Z,30.27
2019-01-23T15:20:55.102Z,26.07
2019-01-23T15:24:40.087Z,25.73
2019-01-23T15:28:24.961Z,30.83
2019-01-23T15:32:09.994Z,32.03
2019-01-23T15:35:54.930Z,32.47
2019-01-23T15:39:39.788Z,32.80
2019-01-23T15:43:24.506Z,34.27
2019-01-23T15:47:09.384Z,33.80
2019-01-23T15:50:54.613Z,37.47
2019-01-23T15:54:39.685Z,32.10
2019-01-23T16:02:28.466Z,34.63
2019-01-23T16:06:13.384Z,38.60
2019-01-23T16:09:50.155Z,36.33
2019-01-23T16:13:53.655Z,38.10
2019-01-23T16:17:19.211Z,60.70
2019-01-23T16:21:03.931Z,45.23
2019-01-23T16:28:52.038Z,35.23
2019-01-23T16:32:36.772Z,33.73
2019-01-23T16:36:21.439Z,32.87
2019-01-23T16:43:57.161Z,35.33
2019-01-23T16:47:41.763Z,34.77
2019-01-23T16:51:26.365Z,34.70
2019-01-23T16:55:11.296Z,33.50
2019-01-23T16:58:55.925Z,31.90
2019-01-23T17:02:59.670Z,34.37
2019-01-23T17:10:40.586Z,34.40
2019-01-23T17:14:25.242Z,33.63
2019-01-23T17:18:09.880Z,33.60
2019-01-23T17:26:03.416Z,34.57
2019-01-23T17:34:10.436Z,35.07
2019-01-23T17:37:55.160Z,37.53
2019-01-23T17:41:39.842Z,36.03
2019-01-23T17:45:43.512Z,35.80
2019-01-23T17:49:28.154Z,34.43
2019-01-23T17:53:12.860Z,37.27
2019-01-23T17:56:57.519Z,35.93
2019-01-23T18:04:45.568Z,33.63
2019-01-23T18:08:30.183Z,33.07
2019-01-23T18:12:14.803Z,33.67
2019-01-23T18:16:10.564Z,35.07
2019-01-23T18:19:55.242Z,36.97
2019-01-23T18:23:39.859Z,33.70
2019-01-23T18:31:27.379Z,35.43
2019-01-23T18:35:50.281Z,32.03
2019-01-23T18:40:08.767Z,32.90
2019-01-23T18:43:48.652Z,34.53
2019-01-23T18:48:11.503Z,35.53
2019-01-23T18:52:15.597Z,32.77
2019-01-23T18:56:07.491Z,38.33
2019-01-23T18:59:58.971Z,37.33
2019-01-23T19:03:57.302Z,37.93
2019-01-23T19:07:41.922Z,35.13
2019-01-23T19:11:26.879Z,36.87
2019-01-23T19:15:51.847Z,35.53
2019-01-23T19:23:27.030Z,36.70
2019-01-23T19:27:11.657Z,36.37
2019-01-23T19:30:56.559Z,40.77
2019-01-23T19:34:41.167Z,39.73
2019-01-23T19:42:08.694Z,41.13
2019-01-23T19:45:53.574Z,41.20
2019-01-23T19:53:27.832Z,36.47
2019-01-23T19:57:12.456Z,35.60
2019-01-23T20:00:57.099Z,40.17
2019-01-23T20:04:41.717Z,38.67
2019-01-23T20:08:26.321Z,38.77
2019-01-23T20:12:15.688Z,36.23
2019-01-23T20:20:08.811Z,38.13
2019-01-23T20:23:53.441Z,35.80
2019-01-23T20:27:38.082Z,37.23
2019-01-23T20:35:26.249Z,40.20
2019-01-23T20:39:04.847Z,42.63
2019-01-23T20:42:50.570Z,40.00
2019-01-23T20:46:35.254Z,37.10
2019-01-23T20:50:22.366Z,39.33
2019-01-23T20:53:47.909Z,35.10
2019-01-23T21:01:36.057Z,34.13
2019-01-23T21:05:20.748Z,34.40
2019-01-23T21:09:45.396Z,35.50
2019-01-23T21:13:30.100Z,35.23
2019-01-23T21:17:14.691Z,34.17
2019-01-23T21:20:59.329Z,34.57
2019-01-23T21:24:43.895Z,33.63
2019-01-23T21:28:21.080Z,36.33
2019-01-23T21:32:05.748Z,35.73
2019-01-23T21:35:50.670Z,33.57
2019-01-23T21:39:55.188Z,33.27
2019-01-23T21:43:39.794Z,34.93
2019-01-23T21:47:24.411Z,34.70
2019-01-23T21:51:09.036Z,33.03
2019-01-23T21:54:53.652Z,37.13
2019-01-23T21:58:38.276Z,36.83
2019-01-23T22:02:22.878Z,34.50
2019-01-23T22:06:07.507Z,37.20
2019-01-23T22:09:52.107Z,34.77
2019-01-23T22:13:37.010Z,34.70
2019-01-23T22:17:21.632Z,33.57
2019-01-23T22:21:06.274Z,34.30
2019-01-23T22:24:50.880Z,34.00
2019-01-23T22:28:35.526Z,33.93
2019-01-23T22:32:20.137Z,33.67
2019-01-23T22:36:05.074Z,33.17
2019-01-23T22:39:49.704Z,34.30
2019-01-23T22:43:34.626Z,35.17
2019-01-23T22:47:19.308Z,34.57
2019-01-23T22:51:03.946Z,34.00
2019-01-23T22:54:48.566Z,33.57
2019-01-23T22:58:33.506Z,35.10
2019-01-23T23:02:18.129Z,37.23
2019-01-23T23:06:22.393Z,36.13
2019-01-23T23:18:09.473Z,34.27
2019-01-23T23:25:43.960Z,40.07
2019-01-23T23:29:21.661Z,35.63
2019-01-23T23:40:46.510Z,37.80
2019-01-23T23:44:31.107Z,35.30
2019-01-23T23:48:15.692Z,38.00
2019-01-23T23:52:00.334Z,36.97
2019-01-23T23:55:45.232Z,37.47
2019-01-23T23:59:29.861Z,40.83
